sensor_id;sensor_type;location;lat;lon;timestamp;P1;durP1;ratioP1;P2;durP2;ratioP2
51814;SDS011;37874;53.158;6.766;2023-02-28T00:03:49;3.10;;;1.60;;
51814;SDS011;37874;53.158;6.766;2023-02-28T00:06:15;2.67;;;1.52;;
51814;SDS011;37874;53.158;6.766;2023-02-28T00:08:41;3.00;;;1.70;;
51814;SDS011;37874;53.158;6.766;2023-02-28T00:11:10;3.78;;;1.65;;
51814;SDS011;37874;53.158;6.766;2023-02-28T00:13:39;2.75;;;1.52;;
51814;SDS011;37874;53.158;6.766;2023-02-28T00:16:07;3.25;;;1.60;;
51814;SDS011;37874;53.158;6.766;2023-02-28T00:18:36;3.00;;;1.50;;
51814;SDS011;37874;53.158;6.766;2023-02-28T00:21:01;2.15;;;1.50;;
51814;SDS011;37874;53.158;6.766;2023-02-28T00:23:27;2.75;;;1.65;;
51814;SDS011;37874;53.158;6.766;2023-02-28T00:25:53;2.72;;;1.30;;
51814;SDS011;37874;53.158;6.766;2023-02-28T00:28:19;2.65;;;1.48;;
51814;SDS011;37874;53.158;6.766;2023-02-28T00:30:45;2.78;;;1.60;;
51814;SDS011;37874;53.158;6.766;2023-02-28T00:33:11;3.10;;;1.60;;
51814;SDS011;37874;53.158;6.766;2023-02-28T00:35:37;3.10;;;1.60;;
51814;SDS011;37874;53.158;6.766;2023-02-28T00:38:03;2.10;;;1.40;;
51814;SDS011;37874;53.158;6.766;2023-02-28T00:40:29;2.92;;;1.60;;
51814;SDS011;37874;53.158;6.766;2023-02-28T00:42:54;3.00;;;1.73;;
51814;SDS011;37874;53.158;6.766;2023-02-28T00:45:20;2.47;;;1.48;;
51814;SDS011;37874;53.158;6.766;2023-02-28T00:47:46;2.90;;;1.65;;
51814;SDS011;37874;53.158;6.766;2023-02-28T00:50:14;2.97;;;1.42;;
51814;SDS011;37874;53.158;6.766;2023-02-28T00:52:45;1.92;;;1.30;;
51814;SDS011;37874;53.158;6.766;2023-02-28T00:55:11;2.90;;;1.65;;
51814;SDS011;37874;53.158;6.766;2023-02-28T00:57:36;2.97;;;1.60;;
51814;SDS011;37874;53.158;6.766;2023-02-28T01:00:03;2.63;;;1.60;;
51814;SDS011;37874;53.158;6.766;2023-02-28T01:02:29;2.72;;;1.50;;
51814;SDS011;37874;53.158;6.766;2023-02-28T01:04:55;5.00;;;1.63;;
51814;SDS011;37874;53.158;6.766;2023-02-28T01:07:22;2.83;;;1.40;;
51814;SDS011;37874;53.158;6.766;2023-02-28T01:09:48;3.17;;;1.65;;
51814;SDS011;37874;53.158;6.766;2023-02-28T01:12:13;1.83;;;1.30;;
51814;SDS011;37874;53.158;6.766;2023-02-28T01:14:39;2.63;;;1.63;;
51814;SDS011;37874;53.158;6.766;2023-02-28T01:17:05;2.70;;;1.55;;
51814;SDS011;37874;53.158;6.766;2023-02-28T01:19:30;2.45;;;1.48;;
51814;SDS011;37874;53.158;6.766;2023-02-28T01:21:56;3.63;;;1.70;;
51814;SDS011;37874;53.158;6.766;2023-02-28T01:24:22;2.00;;;1.40;;
51814;SDS011;37874;53.158;6.766;2023-02-28T01:26:47;2.90;;;1.70;;
51814;SDS011;37874;53.158;6.766;2023-02-28T01:29:13;2.67;;;1.60;;
51814;SDS011;37874;53.158;6.766;2023-02-28T01:31:40;3.53;;;1.50;;
51814;SDS011;37874;53.158;6.766;2023-02-28T01:34:05;3.10;;;1.70;;
51814;SDS011;37874;53.158;6.766;2023-02-28T01:36:31;2.88;;;1.52;;
51814;SDS011;37874;53.158;6.766;2023-02-28T01:38:56;3.55;;;1.42;;
51814;SDS011;37874;53.158;6.766;2023-02-28T01:41:23;3.05;;;1.48;;
51814;SDS011;37874;53.158;6.766;2023-02-28T01:44:02;2.67;;;1.60;;
51814;SDS011;37874;53.158;6.766;2023-02-28T01:46:32;3.25;;;1.77;;
51814;SDS011;37874;53.158;6.766;2023-02-28T01:49:09;2.90;;;1.63;;
51814;SDS011;37874;53.158;6.766;2023-02-28T01:51:43;2.85;;;1.73;;
51814;SDS011;37874;53.158;6.766;2023-02-28T01:54:16;3.72;;;1.73;;
51814;SDS011;37874;53.158;6.766;2023-02-28T01:57:04;2.70;;;1.35;;
51814;SDS011;37874;53.158;6.766;2023-02-28T02:02:10;2.95;;;1.50;;
51814;SDS011;37874;53.158;6.766;2023-02-28T02:04:40;2.40;;;1.42;;
51814;SDS011;37874;53.158;6.766;2023-02-28T02:07:22;2.33;;;1.45;;
51814;SDS011;37874;53.158;6.766;2023-02-28T02:09:49;3.83;;;1.73;;
51814;SDS011;37874;53.158;6.766;2023-02-28T02:13:05;2.78;;;1.88;;
51814;SDS011;37874;53.158;6.766;2023-02-28T02:17:49;2.83;;;1.80;;
51814;SDS011;37874;53.158;6.766;2023-02-28T02:31:26;2.72;;;1.63;;
51814;SDS011;37874;53.158;6.766;2023-02-28T02:36:53;3.45;;;2.15;;
51814;SDS011;37874;53.158;6.766;2023-02-28T02:42:19;3.10;;;1.60;;
51814;SDS011;37874;53.158;6.766;2023-02-28T02:44:53;3.80;;;1.50;;
51814;SDS011;37874;53.158;6.766;2023-02-28T02:47:25;2.60;;;1.67;;
51814;SDS011;37874;53.158;6.766;2023-02-28T02:49:54;3.03;;;1.60;;
51814;SDS011;37874;53.158;6.766;2023-02-28T02:52:26;2.92;;;1.77;;
51814;SDS011;37874;53.158;6.766;2023-02-28T02:54:59;4.13;;;1.90;;
51814;SDS011;37874;53.158;6.766;2023-02-28T02:57:29;2.35;;;1.45;;
51814;SDS011;37874;53.158;6.766;2023-02-28T03:00:00;2.53;;;1.67;;
51814;SDS011;37874;53.158;6.766;2023-02-28T03:02:29;2.75;;;1.83;;
51814;SDS011;37874;53.158;6.766;2023-02-28T03:04:59;2.70;;;1.50;;
51814;SDS011;37874;53.158;6.766;2023-02-28T03:07:29;3.22;;;1.70;;
51814;SDS011;37874;53.158;6.766;2023-02-28T03:09:55;2.60;;;1.70;;
51814;SDS011;37874;53.158;6.766;2023-02-28T03:12:41;2.67;;;1.52;;
51814;SDS011;37874;53.158;6.766;2023-02-28T03:17:47;2.83;;;1.70;;
51814;SDS011;37874;53.158;6.766;2023-02-28T03:30:55;3.35;;;1.98;;
51814;SDS011;37874;53.158;6.766;2023-02-28T03:33:36;3.10;;;1.95;;
51814;SDS011;37874;53.158;6.766;2023-02-28T03:36:08;2.63;;;1.60;;
51814;SDS011;37874;53.158;6.766;2023-02-28T03:38:46;2.67;;;1.60;;
51814;SDS011;37874;53.158;6.766;2023-02-28T03:41:52;3.10;;;1.80;;
51814;SDS011;37874;53.158;6.766;2023-02-28T03:44:28;2.78;;;1.60;;
51814;SDS011;37874;53.158;6.766;2023-02-28T03:47:00;2.72;;;1.63;;
51814;SDS011;37874;53.158;6.766;2023-02-28T03:49:35;2.20;;;1.30;;
51814;SDS011;37874;53.158;6.766;2023-02-28T03:52:08;2.33;;;1.40;;
51814;SDS011;37874;53.158;6.766;2023-02-28T03:54:36;2.50;;;1.70;;
51814;SDS011;37874;53.158;6.766;2023-02-28T03:57:12;2.40;;;1.52;;
51814;SDS011;37874;53.158;6.766;2023-02-28T03:59:47;3.17;;;1.90;;
51814;SDS011;37874;53.158;6.766;2023-02-28T04:02:25;2.83;;;1.75;;
51814;SDS011;37874;53.158;6.766;2023-02-28T04:04:52;2.60;;;1.63;;
51814;SDS011;37874;53.158;6.766;2023-02-28T04:07:18;2.58;;;1.50;;
51814;SDS011;37874;53.158;6.766;2023-02-28T04:09:44;2.00;;;1.50;;
51814;SDS011;37874;53.158;6.766;2023-02-28T04:12:09;2.90;;;1.70;;
51814;SDS011;37874;53.158;6.766;2023-02-28T04:14:35;3.05;;;1.52;;
51814;SDS011;37874;53.158;6.766;2023-02-28T04:17:01;2.50;;;1.60;;
51814;SDS011;37874;53.158;6.766;2023-02-28T04:19:27;2.30;;;1.50;;
51814;SDS011;37874;53.158;6.766;2023-02-28T04:21:52;2.83;;;1.60;;
51814;SDS011;37874;53.158;6.766;2023-02-28T04:24:22;2.38;;;1.55;;
51814;SDS011;37874;53.158;6.766;2023-02-28T04:26:51;3.67;;;1.73;;
51814;SDS011;37874;53.158;6.766;2023-02-28T04:29:20;2.40;;;1.55;;
51814;SDS011;37874;53.158;6.766;2023-02-28T04:31:50;2.47;;;1.48;;
51814;SDS011;37874;53.158;6.766;2023-02-28T04:34:18;3.30;;;1.80;;
51814;SDS011;37874;53.158;6.766;2023-02-28T04:36:44;2.90;;;1.45;;
51814;SDS011;37874;53.158;6.766;2023-02-28T04:39:11;3.13;;;1.60;;
51814;SDS011;37874;53.158;6.766;2023-02-28T04:41:37;3.65;;;1.90;;
51814;SDS011;37874;53.158;6.766;2023-02-28T04:44:02;2.90;;;1.60;;
51814;SDS011;37874;53.158;6.766;2023-02-28T04:46:28;2.47;;;1.45;;
51814;SDS011;37874;53.158;6.766;2023-02-28T04:48:55;3.38;;;1.80;;
51814;SDS011;37874;53.158;6.766;2023-02-28T04:51:21;2.08;;;1.40;;
51814;SDS011;37874;53.158;6.766;2023-02-28T04:53:47;2.47;;;1.60;;
51814;SDS011;37874;53.158;6.766;2023-02-28T04:56:14;3.08;;;1.52;;
51814;SDS011;37874;53.158;6.766;2023-02-28T04:58:41;2.22;;;1.48;;
51814;SDS011;37874;53.158;6.766;2023-02-28T05:01:21;2.60;;;1.52;;
51814;SDS011;37874;53.158;6.766;2023-02-28T05:03:52;2.35;;;1.50;;
51814;SDS011;37874;53.158;6.766;2023-02-28T05:06:19;2.83;;;1.55;;
51814;SDS011;37874;53.158;6.766;2023-02-28T05:08:45;3.13;;;1.60;;
51814;SDS011;37874;53.158;6.766;2023-02-28T05:11:14;2.70;;;1.85;;
51814;SDS011;37874;53.158;6.766;2023-02-28T05:13:44;3.47;;;1.60;;
51814;SDS011;37874;53.158;6.766;2023-02-28T05:16:10;4.47;;;1.85;;
51814;SDS011;37874;53.158;6.766;2023-02-28T05:18:36;2.55;;;1.55;;
51814;SDS011;37874;53.158;6.766;2023-02-28T05:21:02;2.47;;;1.50;;
51814;SDS011;37874;53.158;6.766;2023-02-28T05:23:28;2.17;;;1.30;;
51814;SDS011;37874;53.158;6.766;2023-02-28T05:25:54;2.95;;;1.52;;
51814;SDS011;37874;53.158;6.766;2023-02-28T05:28:20;2.00;;;1.45;;
51814;SDS011;37874;53.158;6.766;2023-02-28T05:30:46;2.75;;;1.60;;
51814;SDS011;37874;53.158;6.766;2023-02-28T05:33:12;4.30;;;1.38;;
51814;SDS011;37874;53.158;6.766;2023-02-28T05:35:41;2.60;;;1.60;;
51814;SDS011;37874;53.158;6.766;2023-02-28T05:38:10;2.63;;;1.70;;
51814;SDS011;37874;53.158;6.766;2023-02-28T05:40:37;2.22;;;1.40;;
51814;SDS011;37874;53.158;6.766;2023-02-28T05:43:04;4.95;;;1.75;;
51814;SDS011;37874;53.158;6.766;2023-02-28T05:45:30;3.53;;;1.50;;
51814;SDS011;37874;53.158;6.766;2023-02-28T05:47:55;4.57;;;1.55;;
51814;SDS011;37874;53.158;6.766;2023-02-28T05:50:21;3.00;;;1.77;;
51814;SDS011;37874;53.158;6.766;2023-02-28T05:52:50;3.47;;;1.50;;
51814;SDS011;37874;53.158;6.766;2023-02-28T05:55:17;3.10;;;1.60;;
51814;SDS011;37874;53.158;6.766;2023-02-28T05:57:43;2.88;;;1.60;;
51814;SDS011;37874;53.158;6.766;2023-02-28T06:00:09;3.45;;;1.80;;
51814;SDS011;37874;53.158;6.766;2023-02-28T06:02:35;3.42;;;1.70;;
51814;SDS011;37874;53.158;6.766;2023-02-28T06:05:01;3.95;;;1.60;;
51814;SDS011;37874;53.158;6.766;2023-02-28T06:07:26;4.70;;;1.58;;
51814;SDS011;37874;53.158;6.766;2023-02-28T06:09:52;3.08;;;1.90;;
51814;SDS011;37874;53.158;6.766;2023-02-28T06:12:18;3.30;;;1.55;;
51814;SDS011;37874;53.158;6.766;2023-02-28T06:14:44;3.00;;;1.63;;
51814;SDS011;37874;53.158;6.766;2023-02-28T06:17:09;2.38;;;1.40;;
51814;SDS011;37874;53.158;6.766;2023-02-28T06:19:36;3.05;;;1.80;;
51814;SDS011;37874;53.158;6.766;2023-02-28T06:22:03;2.50;;;1.80;;
51814;SDS011;37874;53.158;6.766;2023-02-28T06:24:29;2.45;;;1.75;;
51814;SDS011;37874;53.158;6.766;2023-02-28T06:26:56;2.78;;;1.65;;
51814;SDS011;37874;53.158;6.766;2023-02-28T06:29:24;2.40;;;1.80;;
51814;SDS011;37874;53.158;6.766;2023-02-28T06:31:50;2.78;;;1.50;;
51814;SDS011;37874;53.158;6.766;2023-02-28T06:34:15;2.90;;;1.83;;
51814;SDS011;37874;53.158;6.766;2023-02-28T06:36:42;2.90;;;1.65;;
51814;SDS011;37874;53.158;6.766;2023-02-28T06:39:08;2.75;;;1.73;;
51814;SDS011;37874;53.158;6.766;2023-02-28T06:41:34;2.45;;;1.60;;
51814;SDS011;37874;53.158;6.766;2023-02-28T06:44:05;2.72;;;1.65;;
51814;SDS011;37874;53.158;6.766;2023-02-28T06:46:36;3.70;;;1.70;;
51814;SDS011;37874;53.158;6.766;2023-02-28T06:49:03;2.85;;;1.70;;
51814;SDS011;37874;53.158;6.766;2023-02-28T06:51:28;2.35;;;1.80;;
51814;SDS011;37874;53.158;6.766;2023-02-28T06:53:54;2.70;;;1.77;;
51814;SDS011;37874;53.158;6.766;2023-02-28T06:56:20;3.13;;;1.90;;
51814;SDS011;37874;53.158;6.766;2023-02-28T06:58:46;3.17;;;1.85;;
51814;SDS011;37874;53.158;6.766;2023-02-28T07:01:13;3.42;;;1.60;;
51814;SDS011;37874;53.158;6.766;2023-02-28T07:03:39;2.88;;;2.00;;
51814;SDS011;37874;53.158;6.766;2023-02-28T07:06:05;4.22;;;2.13;;
51814;SDS011;37874;53.158;6.766;2023-02-28T07:08:31;2.63;;;1.80;;
51814;SDS011;37874;53.158;6.766;2023-02-28T07:10:58;3.42;;;2.00;;
51814;SDS011;37874;53.158;6.766;2023-02-28T07:13:23;2.92;;;1.70;;
51814;SDS011;37874;53.158;6.766;2023-02-28T07:15:53;2.92;;;1.90;;
51814;SDS011;37874;53.158;6.766;2023-02-28T07:18:19;2.95;;;2.00;;
51814;SDS011;37874;53.158;6.766;2023-02-28T07:20:44;3.13;;;2.03;;
51814;SDS011;37874;53.158;6.766;2023-02-28T07:23:10;3.08;;;1.90;;
51814;SDS011;37874;53.158;6.766;2023-02-28T07:25:35;2.50;;;1.90;;
51814;SDS011;37874;53.158;6.766;2023-02-28T07:28:01;2.72;;;1.80;;
51814;SDS011;37874;53.158;6.766;2023-02-28T07:30:26;2.80;;;1.60;;
51814;SDS011;37874;53.158;6.766;2023-02-28T07:32:52;3.15;;;1.90;;
51814;SDS011;37874;53.158;6.766;2023-02-28T07:35:19;3.35;;;2.10;;
51814;SDS011;37874;53.158;6.766;2023-02-28T07:37:45;3.00;;;2.05;;
51814;SDS011;37874;53.158;6.766;2023-02-28T07:40:12;3.20;;;2.28;;
51814;SDS011;37874;53.158;6.766;2023-02-28T07:42:42;3.50;;;1.90;;
51814;SDS011;37874;53.158;6.766;2023-02-28T07:45:09;3.47;;;1.90;;
51814;SDS011;37874;53.158;6.766;2023-02-28T07:47:37;4.28;;;2.00;;
51814;SDS011;37874;53.158;6.766;2023-02-28T07:50:08;3.83;;;2.10;;
51814;SDS011;37874;53.158;6.766;2023-02-28T07:52:36;2.42;;;1.90;;
51814;SDS011;37874;53.158;6.766;2023-02-28T07:55:02;2.60;;;1.58;;
51814;SDS011;37874;53.158;6.766;2023-02-28T07:57:29;3.10;;;2.00;;
51814;SDS011;37874;53.158;6.766;2023-02-28T07:59:55;2.45;;;1.70;;
51814;SDS011;37874;53.158;6.766;2023-02-28T08:02:20;3.35;;;1.85;;
51814;SDS011;37874;53.158;6.766;2023-02-28T08:04:46;3.58;;;2.00;;
51814;SDS011;37874;53.158;6.766;2023-02-28T08:07:13;3.45;;;2.20;;
51814;SDS011;37874;53.158;6.766;2023-02-28T08:09:39;2.22;;;1.58;;
51814;SDS011;37874;53.158;6.766;2023-02-28T08:12:05;2.92;;;2.00;;
51814;SDS011;37874;53.158;6.766;2023-02-28T08:14:32;3.10;;;1.92;;
51814;SDS011;37874;53.158;6.766;2023-02-28T08:16:58;2.92;;;1.95;;
51814;SDS011;37874;53.158;6.766;2023-02-28T08:19:23;2.75;;;1.88;;
51814;SDS011;37874;53.158;6.766;2023-02-28T08:21:49;2.75;;;2.00;;
51814;SDS011;37874;53.158;6.766;2023-02-28T08:24:14;3.08;;;2.03;;
51814;SDS011;37874;53.158;6.766;2023-02-28T08:26:40;3.22;;;2.20;;
51814;SDS011;37874;53.158;6.766;2023-02-28T08:29:06;3.22;;;2.10;;
51814;SDS011;37874;53.158;6.766;2023-02-28T08:31:31;3.10;;;2.20;;
51814;SDS011;37874;53.158;6.766;2023-02-28T08:33:57;3.45;;;2.10;;
51814;SDS011;37874;53.158;6.766;2023-02-28T08:36:24;3.50;;;1.98;;
51814;SDS011;37874;53.158;6.766;2023-02-28T08:38:53;3.10;;;2.20;;
51814;SDS011;37874;53.158;6.766;2023-02-28T08:41:18;2.60;;;1.80;;
51814;SDS011;37874;53.158;6.766;2023-02-28T08:43:44;3.10;;;2.15;;
51814;SDS011;37874;53.158;6.766;2023-02-28T08:46:13;3.10;;;2.10;;
51814;SDS011;37874;53.158;6.766;2023-02-28T08:48:39;2.95;;;2.08;;
51814;SDS011;37874;53.158;6.766;2023-02-28T08:51:09;3.10;;;2.15;;
51814;SDS011;37874;53.158;6.766;2023-02-28T08:53:37;3.25;;;2.08;;
51814;SDS011;37874;53.158;6.766;2023-02-28T08:56:09;2.97;;;2.05;;
51814;SDS011;37874;53.158;6.766;2023-02-28T08:58:37;3.92;;;2.10;;
51814;SDS011;37874;53.158;6.766;2023-02-28T09:01:12;4.55;;;2.42;;
51814;SDS011;37874;53.158;6.766;2023-02-28T09:03:40;4.68;;;2.40;;
51814;SDS011;37874;53.158;6.766;2023-02-28T09:06:06;3.35;;;2.30;;
51814;SDS011;37874;53.158;6.766;2023-02-28T09:08:33;3.75;;;2.40;;
51814;SDS011;37874;53.158;6.766;2023-02-28T09:10:58;5.13;;;2.92;;
51814;SDS011;37874;53.158;6.766;2023-02-28T09:13:25;3.47;;;2.38;;
51814;SDS011;37874;53.158;6.766;2023-02-28T09:15:51;3.80;;;2.30;;
51814;SDS011;37874;53.158;6.766;2023-02-28T09:18:18;3.25;;;2.30;;
51814;SDS011;37874;53.158;6.766;2023-02-28T09:20:44;3.08;;;2.20;;
51814;SDS011;37874;53.158;6.766;2023-02-28T09:23:11;4.60;;;2.85;;
51814;SDS011;37874;53.158;6.766;2023-02-28T09:25:37;4.07;;;2.53;;
51814;SDS011;37874;53.158;6.766;2023-02-28T09:28:09;5.13;;;2.80;;
51814;SDS011;37874;53.158;6.766;2023-02-28T09:30:35;3.10;;;2.20;;
51814;SDS011;37874;53.158;6.766;2023-02-28T09:33:00;4.35;;;2.75;;
51814;SDS011;37874;53.158;6.766;2023-02-28T09:35:26;3.53;;;2.30;;
51814;SDS011;37874;53.158;6.766;2023-02-28T09:37:52;3.35;;;2.53;;
51814;SDS011;37874;53.158;6.766;2023-02-28T09:40:20;3.47;;;2.28;;
51814;SDS011;37874;53.158;6.766;2023-02-28T09:42:49;3.58;;;2.60;;
51814;SDS011;37874;53.158;6.766;2023-02-28T09:45:29;4.00;;;2.80;;
51814;SDS011;37874;53.158;6.766;2023-02-28T09:47:59;3.67;;;2.80;;
51814;SDS011;37874;53.158;6.766;2023-02-28T09:53:03;3.10;;;2.50;;
51814;SDS011;37874;53.158;6.766;2023-02-28T09:55:39;3.92;;;2.60;;
51814;SDS011;37874;53.158;6.766;2023-02-28T09:58:18;3.45;;;2.28;;
51814;SDS011;37874;53.158;6.766;2023-02-28T10:01:03;3.42;;;2.20;;
51814;SDS011;37874;53.158;6.766;2023-02-28T10:03:52;4.15;;;2.63;;
51814;SDS011;37874;53.158;6.766;2023-02-28T10:09:11;3.83;;;2.40;;
51814;SDS011;37874;53.158;6.766;2023-02-28T10:11:42;3.33;;;2.40;;
51814;SDS011;37874;53.158;6.766;2023-02-28T10:14:12;3.80;;;2.42;;
51814;SDS011;37874;53.158;6.766;2023-02-28T10:16:49;3.85;;;2.30;;
51814;SDS011;37874;53.158;6.766;2023-02-28T10:22:00;3.05;;;2.20;;
51814;SDS011;37874;53.158;6.766;2023-02-28T10:24:44;2.88;;;2.00;;
51814;SDS011;37874;53.158;6.766;2023-02-28T10:29:41;3.17;;;2.10;;
51814;SDS011;37874;53.158;6.766;2023-02-28T10:32:08;4.03;;;2.25;;
51814;SDS011;37874;53.158;6.766;2023-02-28T10:34:39;3.00;;;2.00;;
51814;SDS011;37874;53.158;6.766;2023-02-28T10:37:05;3.13;;;1.90;;
51814;SDS011;37874;53.158;6.766;2023-02-28T10:42:15;2.65;;;2.10;;
51814;SDS011;37874;53.158;6.766;2023-02-28T10:44:45;3.40;;;1.95;;
51814;SDS011;37874;53.158;6.766;2023-02-28T10:47:14;3.05;;;2.05;;
51814;SDS011;37874;53.158;6.766;2023-02-28T10:49:46;2.90;;;1.80;;
51814;SDS011;37874;53.158;6.766;2023-02-28T10:52:13;2.95;;;1.80;;
51814;SDS011;37874;53.158;6.766;2023-02-28T10:54:39;2.40;;;1.70;;
51814;SDS011;37874;53.158;6.766;2023-02-28T10:57:19;2.85;;;1.70;;
51814;SDS011;37874;53.158;6.766;2023-02-28T10:59:50;2.88;;;1.63;;
51814;SDS011;37874;53.158;6.766;2023-02-28T11:02:36;2.38;;;1.77;;
51814;SDS011;37874;53.158;6.766;2023-02-28T11:05:21;5.43;;;2.10;;
51814;SDS011;37874;53.158;6.766;2023-02-28T11:08:05;2.63;;;1.55;;
51814;SDS011;37874;53.158;6.766;2023-02-28T11:10:32;3.20;;;1.73;;
51814;SDS011;37874;53.158;6.766;2023-02-28T11:12:59;3.58;;;1.75;;
51814;SDS011;37874;53.158;6.766;2023-02-28T11:15:29;2.45;;;1.75;;
51814;SDS011;37874;53.158;6.766;2023-02-28T11:18:18;3.22;;;1.90;;
51814;SDS011;37874;53.158;6.766;2023-02-28T11:21:04;2.22;;;1.60;;
51814;SDS011;37874;53.158;6.766;2023-02-28T11:23:30;2.58;;;1.48;;
51814;SDS011;37874;53.158;6.766;2023-02-28T11:26:00;2.55;;;1.42;;
51814;SDS011;37874;53.158;6.766;2023-02-28T11:28:29;2.83;;;1.52;;
51814;SDS011;37874;53.158;6.766;2023-02-28T11:33:53;2.63;;;1.40;;
51814;SDS011;37874;53.158;6.766;2023-02-28T11:36:24;2.28;;;1.38;;
51814;SDS011;37874;53.158;6.766;2023-02-28T11:38:53;2.10;;;1.40;;
51814;SDS011;37874;53.158;6.766;2023-02-28T11:46:43;2.45;;;1.48;;
51814;SDS011;37874;53.158;6.766;2023-02-28T11:51:59;2.58;;;1.50;;
51814;SDS011;37874;53.158;6.766;2023-02-28T11:54:48;2.88;;;1.52;;
51814;SDS011;37874;53.158;6.766;2023-02-28T12:03:07;2.97;;;1.30;;
51814;SDS011;37874;53.158;6.766;2023-02-28T12:13:37;2.17;;;1.30;;
51814;SDS011;37874;53.158;6.766;2023-02-28T12:27:05;2.85;;;1.40;;
51814;SDS011;37874;53.158;6.766;2023-02-28T12:32:27;2.80;;;1.60;;
51814;SDS011;37874;53.158;6.766;2023-02-28T12:34:57;2.50;;;1.58;;
51814;SDS011;37874;53.158;6.766;2023-02-28T12:37:50;1.90;;;1.15;;
51814;SDS011;37874;53.158;6.766;2023-02-28T12:40:23;2.60;;;1.33;;
51814;SDS011;37874;53.158;6.766;2023-02-28T12:42:52;2.30;;;1.30;;
51814;SDS011;37874;53.158;6.766;2023-02-28T12:45:23;3.05;;;1.30;;
51814;SDS011;37874;53.158;6.766;2023-02-28T12:47:58;2.42;;;1.35;;
51814;SDS011;37874;53.158;6.766;2023-02-28T12:50:27;2.10;;;1.40;;
51814;SDS011;37874;53.158;6.766;2023-02-28T12:58:36;2.22;;;1.15;;
51814;SDS011;37874;53.158;6.766;2023-02-28T13:09:54;2.53;;;1.40;;
51814;SDS011;37874;53.158;6.766;2023-02-28T13:12:21;1.98;;;1.00;;
51814;SDS011;37874;53.158;6.766;2023-02-28T13:14:48;2.17;;;1.10;;
51814;SDS011;37874;53.158;6.766;2023-02-28T13:17:18;2.25;;;1.20;;
51814;SDS011;37874;53.158;6.766;2023-02-28T13:20:14;1.80;;;1.10;;
51814;SDS011;37874;53.158;6.766;2023-02-28T13:22:41;2.28;;;1.10;;
51814;SDS011;37874;53.158;6.766;2023-02-28T13:25:49;2.00;;;1.17;;
51814;SDS011;37874;53.158;6.766;2023-02-28T13:28:10;2.75;;;1.15;;
51814;SDS011;37874;53.158;6.766;2023-02-28T13:33:27;2.00;;;1.10;;
51814;SDS011;37874;53.158;6.766;2023-02-28T13:38:39;2.55;;;1.10;;
51814;SDS011;37874;53.158;6.766;2023-02-28T13:46:35;2.20;;;0.90;;
51814;SDS011;37874;53.158;6.766;2023-02-28T13:49:31;1.85;;;1.00;;
51814;SDS011;37874;53.158;6.766;2023-02-28T13:52:17;1.73;;;0.85;;
51814;SDS011;37874;53.158;6.766;2023-02-28T13:54:54;3.00;;;1.27;;
51814;SDS011;37874;53.158;6.766;2023-02-28T13:57:33;2.40;;;1.10;;
51814;SDS011;37874;53.158;6.766;2023-02-28T14:05:33;2.58;;;1.00;;
51814;SDS011;37874;53.158;6.766;2023-02-28T14:08:04;2.30;;;1.00;;
51814;SDS011;37874;53.158;6.766;2023-02-28T14:10:35;1.83;;;0.90;;
51814;SDS011;37874;53.158;6.766;2023-02-28T14:13:57;1.92;;;1.05;;
51814;SDS011;37874;53.158;6.766;2023-02-28T14:16:09;2.10;;;1.00;;
51814;SDS011;37874;53.158;6.766;2023-02-28T14:18:38;1.83;;;1.10;;
51814;SDS011;37874;53.158;6.766;2023-02-28T14:21:11;1.92;;;0.93;;
51814;SDS011;37874;53.158;6.766;2023-02-28T14:26:37;2.20;;;0.80;;
51814;SDS011;37874;53.158;6.766;2023-02-28T14:37:32;1.40;;;0.70;;
51814;SDS011;37874;53.158;6.766;2023-02-28T14:40:02;1.70;;;0.80;;
51814;SDS011;37874;53.158;6.766;2023-02-28T14:42:36;2.35;;;1.05;;
51814;SDS011;37874;53.158;6.766;2023-02-28T14:45:21;1.70;;;0.80;;
51814;SDS011;37874;53.158;6.766;2023-02-28T14:47:48;2.13;;;0.82;;
51814;SDS011;37874;53.158;6.766;2023-02-28T14:50:20;2.30;;;1.05;;
51814;SDS011;37874;53.158;6.766;2023-02-28T14:52:50;1.85;;;0.90;;
51814;SDS011;37874;53.158;6.766;2023-02-28T14:55:27;2.10;;;1.10;;
51814;SDS011;37874;53.158;6.766;2023-02-28T15:00:32;1.90;;;1.00;;
51814;SDS011;37874;53.158;6.766;2023-02-28T15:03:00;2.38;;;1.10;;
51814;SDS011;37874;53.158;6.766;2023-02-28T15:05:42;1.92;;;0.98;;
51814;SDS011;37874;53.158;6.766;2023-02-28T15:08:16;1.45;;;0.80;;
51814;SDS011;37874;53.158;6.766;2023-02-28T15:10:44;1.73;;;0.90;;
51814;SDS011;37874;53.158;6.766;2023-02-28T15:13:16;1.95;;;0.75;;
51814;SDS011;37874;53.158;6.766;2023-02-28T15:15:45;1.83;;;0.90;;
51814;SDS011;37874;53.158;6.766;2023-02-28T15:18:25;1.63;;;1.00;;
51814;SDS011;37874;53.158;6.766;2023-02-28T15:21:05;1.85;;;1.00;;
51814;SDS011;37874;53.158;6.766;2023-02-28T15:23:36;1.40;;;0.80;;
51814;SDS011;37874;53.158;6.766;2023-02-28T15:26:02;1.60;;;0.90;;
51814;SDS011;37874;53.158;6.766;2023-02-28T15:28:29;1.55;;;0.90;;
51814;SDS011;37874;53.158;6.766;2023-02-28T15:33:24;2.55;;;1.48;;
51814;SDS011;37874;53.158;6.766;2023-02-28T15:36:11;1.92;;;0.85;;
51814;SDS011;37874;53.158;6.766;2023-02-28T15:38:39;1.92;;;0.80;;
51814;SDS011;37874;53.158;6.766;2023-02-28T15:41:05;1.60;;;0.82;;
51814;SDS011;37874;53.158;6.766;2023-02-28T15:43:36;1.30;;;0.80;;
51814;SDS011;37874;53.158;6.766;2023-02-28T15:48:33;1.83;;;0.98;;
51814;SDS011;37874;53.158;6.766;2023-02-28T15:56:37;1.73;;;1.00;;
51814;SDS011;37874;53.158;6.766;2023-02-28T15:59:12;1.83;;;0.95;;
51814;SDS011;37874;53.158;6.766;2023-02-28T16:07:37;1.95;;;0.90;;
51814;SDS011;37874;53.158;6.766;2023-02-28T16:10:06;1.77;;;0.90;;
51814;SDS011;37874;53.158;6.766;2023-02-28T16:12:33;1.92;;;0.85;;
51814;SDS011;37874;53.158;6.766;2023-02-28T16:15:08;1.55;;;0.77;;
51814;SDS011;37874;53.158;6.766;2023-02-28T16:17:45;1.53;;;0.80;;
51814;SDS011;37874;53.158;6.766;2023-02-28T16:20:12;2.25;;;1.00;;
51814;SDS011;37874;53.158;6.766;2023-02-28T16:22:45;1.75;;;0.88;;
51814;SDS011;37874;53.158;6.766;2023-02-28T16:25:15;1.95;;;0.85;;
51814;SDS011;37874;53.158;6.766;2023-02-28T16:27:42;1.20;;;0.80;;
51814;SDS011;37874;53.158;6.766;2023-02-28T16:30:16;1.88;;;0.70;;
51814;SDS011;37874;53.158;6.766;2023-02-28T16:32:47;1.77;;;0.82;;
51814;SDS011;37874;53.158;6.766;2023-02-28T16:35:14;1.17;;;0.70;;
51814;SDS011;37874;53.158;6.766;2023-02-28T16:37:40;2.15;;;0.85;;
51814;SDS011;37874;53.158;6.766;2023-02-28T16:40:08;1.63;;;0.80;;
51814;SDS011;37874;53.158;6.766;2023-02-28T16:42:46;1.58;;;0.80;;
51814;SDS011;37874;53.158;6.766;2023-02-28T16:45:18;1.50;;;0.95;;
51814;SDS011;37874;53.158;6.766;2023-02-28T16:47:49;2.40;;;0.90;;
51814;SDS011;37874;53.158;6.766;2023-02-28T16:50:22;2.70;;;1.00;;
51814;SDS011;37874;53.158;6.766;2023-02-28T16:52:49;3.13;;;1.00;;
51814;SDS011;37874;53.158;6.766;2023-02-28T16:55:17;2.22;;;0.90;;
51814;SDS011;37874;53.158;6.766;2023-02-28T16:57:43;2.05;;;0.90;;
51814;SDS011;37874;53.158;6.766;2023-02-28T17:00:12;2.65;;;1.48;;
51814;SDS011;37874;53.158;6.766;2023-02-28T17:02:38;2.95;;;1.30;;
51814;SDS011;37874;53.158;6.766;2023-02-28T17:05:04;2.47;;;1.10;;
51814;SDS011;37874;53.158;6.766;2023-02-28T17:07:31;1.90;;;1.00;;
51814;SDS011;37874;53.158;6.766;2023-02-28T17:09:57;1.67;;;0.93;;
51814;SDS011;37874;53.158;6.766;2023-02-28T17:12:23;2.10;;;1.02;;
51814;SDS011;37874;53.158;6.766;2023-02-28T17:14:48;1.90;;;1.10;;
51814;SDS011;37874;53.158;6.766;2023-02-28T17:17:15;1.80;;;1.13;;
51814;SDS011;37874;53.158;6.766;2023-02-28T17:19:44;2.03;;;1.40;;
51814;SDS011;37874;53.158;6.766;2023-02-28T17:22:10;2.15;;;1.20;;
51814;SDS011;37874;53.158;6.766;2023-02-28T17:24:36;2.35;;;1.35;;
51814;SDS011;37874;53.158;6.766;2023-02-28T17:27:02;1.77;;;1.20;;
51814;SDS011;37874;53.158;6.766;2023-02-28T17:29:28;2.10;;;1.30;;
51814;SDS011;37874;53.158;6.766;2023-02-28T17:31:53;2.33;;;1.27;;
51814;SDS011;37874;53.158;6.766;2023-02-28T17:34:20;2.17;;;1.20;;